Time;durP1;ratioP1;P1;durP2;ratioP2;P2;SDS_P1;SDS_P2;PMS_P1;PMS_P2;Temp;Humidity;BMP_temperature;BMP_pressure;BME280_temperature;BME280_humidity;BME280_pressure;Samples;Min_cycle;Max_cycle;Signal;HPM_P1;HPM_P2
2023/04/03 00:01:28;;;;;;;4.00;1.80;;;5.50;99.90;;;;;;5108880;28;20389;-73
2023/04/03 00:03:55;;;;;;;4.05;1.75;;;5.50;99.90;;;;;;5109379;28;20038;-74
2023/04/03 00:06:21;;;;;;;3.55;1.80;;;5.40;99.90;;;;;;5109917;28;20015;-74
2023/04/03 00:08:47;;;;;;;2.72;1.40;;;5.40;99.90;;;;;;5102261;28;20114;-74
2023/04/03 00:11:12;;;;;;;4.10;1.63;;;5.40;99.90;;;;;;5111511;28;20411;-73
2023/04/03 00:13:39;;;;;;;3.22;1.80;;;5.40;99.90;;;;;;5091675;28;20031;-73
2023/04/03 00:16:05;;;;;;;3.55;1.70;;;5.30;99.90;;;;;;5108524;28;20356;-73
2023/04/03 00:18:31;;;;;;;3.10;1.60;;;5.30;99.90;;;;;;5110382;28;20024;-73
2023/04/03 00:20:57;;;;;;;3.30;1.83;;;5.30;99.90;;;;;;5112447;28;20382;-73
2023/04/03 00:23:23;;;;;;;3.33;1.95;;;5.20;99.90;;;;;;5113358;28;20034;-73
2023/04/03 00:25:49;;;;;;;3.03;1.52;;;5.20;99.90;;;;;;5090940;28;20459;-73
2023/04/03 00:28:15;;;;;;;2.97;1.75;;;5.20;99.90;;;;;;5109382;28;20082;-73
2023/04/03 00:30:41;;;;;;;4.30;1.70;;;5.20;99.90;;;;;;5112491;28;20113;-73
2023/04/03 00:33:09;;;;;;;5.28;1.70;;;5.20;99.90;;;;;;5113043;28;20039;-73
2023/04/03 00:35:35;;;;;;;3.25;1.80;;;5.20;99.90;;;;;;5111916;28;20073;-73
2023/04/03 00:38:00;;;;;;;5.25;1.83;;;5.10;99.90;;;;;;5103846;28;20475;-73
2023/04/03 00:40:27;;;;;;;4.43;1.67;;;5.10;99.90;;;;;;5111944;28;20076;-74
2023/04/03 00:42:59;;;;;;;3.70;1.90;;;5.10;99.90;;;;;;5102342;28;20043;-73
2023/04/03 00:45:37;;;;;;;3.72;2.10;;;5.10;99.90;;;;;;5100145;28;20567;-73
2023/04/03 00:48:06;;;;;;;4.65;1.70;;;5.00;99.90;;;;;;5112118;28;20077;-73
2023/04/03 00:50:35;;;;;;;4.40;1.90;;;5.00;99.90;;;;;;5109389;28;20035;-73
2023/04/03 00:53:01;;;;;;;3.20;1.77;;;5.00;99.90;;;;;;5110283;28;20031;-75
2023/04/03 00:55:27;;;;;;;4.80;1.92;;;5.00;99.90;;;;;;5101493;28;20108;-73
2023/04/03 00:57:54;;;;;;;3.85;1.67;;;5.00;99.90;;;;;;5098874;28;20446;-73
2023/04/03 01:00:22;;;;;;;4.00;2.03;;;4.90;99.90;;;;;;5103819;28;20044;-73
2023/04/03 01:02:49;;;;;;;5.35;1.75;;;4.90;99.90;;;;;;5107095;28;20426;-73
2023/04/03 01:05:16;;;;;;;3.88;2.38;;;4.90;99.90;;;;;;5110687;28;20114;-73
2023/04/03 01:07:42;;;;;;;6.78;2.42;;;4.80;99.90;;;;;;5098525;28;20105;-73
2023/04/03 01:10:14;;;;;;;5.07;2.65;;;4.80;99.90;;;;;;5112519;28;20039;-73
2023/04/03 01:12:41;;;;;;;4.88;2.47;;;4.70;99.90;;;;;;5111992;28;20084;-73
2023/04/03 01:15:20;;;;;;;6.97;2.63;;;4.70;99.90;;;;;;5102199;28;20021;-73
2023/04/03 01:17:50;;;;;;;5.68;2.63;;;4.70;99.90;;;;;;5106350;28;20024;-73
2023/04/03 01:20:48;;;;;;;7.05;2.80;;;4.70;99.90;;;;;;5096655;28;20038;-74
2023/04/03 01:23:47;;;;;;;4.18;2.20;;;4.70;99.90;;;;;;5100441;28;20430;-74
2023/04/03 01:26:13;;;;;;;4.18;2.10;;;4.70;99.90;;;;;;5101330;28;20077;-74
2023/04/03 01:28:39;;;;;;;3.40;2.22;;;4.60;99.90;;;;;;5098531;28;20486;-73
2023/04/03 01:31:10;;;;;;;8.73;2.53;;;4.60;99.90;;;;;;5093054;28;20027;-73
2023/04/03 01:33:37;;;;;;;4.55;2.20;;;4.60;99.90;;;;;;5111357;28;20027;-73
2023/04/03 01:36:04;;;;;;;7.32;2.30;;;4.50;99.90;;;;;;5103688;28;20032;-73
2023/04/03 01:38:30;;;;;;;4.80;2.42;;;4.50;99.90;;;;;;5102412;28;20031;-73
2023/04/03 01:40:56;;;;;;;4.18;2.10;;;4.50;99.90;;;;;;5103112;28;20409;-73
2023/04/03 01:43:22;;;;;;;4.05;2.35;;;4.50;99.90;;;;;;5110200;28;20032;-73
2023/04/03 01:45:49;;;;;;;3.95;2.17;;;4.50;99.90;;;;;;5110876;28;20038;-73
2023/04/03 01:48:15;;;;;;;3.95;2.35;;;4.50;99.90;;;;;;5111799;28;20027;-73
2023/04/03 01:50:41;;;;;;;3.38;2.10;;;4.50;99.90;;;;;;5111407;28;20034;-73
2023/04/03 01:53:07;;;;;;;5.07;2.17;;;4.50;99.90;;;;;;5110707;28;20039;-74
2023/04/03 01:55:33;;;;;;;6.38;2.50;;;4.40;99.90;;;;;;5102050;28;20031;-73
2023/04/03 01:57:58;;;;;;;4.15;2.10;;;4.40;99.90;;;;;;5107755;28;20016;-73
2023/04/03 02:00:24;;;;;;;7.65;2.28;;;4.40;99.90;;;;;;5102364;28;20016;-73
2023/04/03 02:02:50;;;;;;;4.82;2.13;;;4.40;99.90;;;;;;5098887;28;20047;-73
2023/04/03 02:05:15;;;;;;;5.50;2.05;;;4.30;99.90;;;;;;5111324;28;20024;-73
2023/04/03 02:07:41;;;;;;;4.97;2.03;;;4.30;99.90;;;;;;5101940;28;20059;-74
2023/04/03 02:10:07;;;;;;;5.78;2.20;;;4.30;99.90;;;;;;5110548;28;20028;-74
2023/04/03 02:12:33;;;;;;;5.22;2.10;;;4.30;99.90;;;;;;5111034;28;20027;-74
2023/04/03 02:14:58;;;;;;;4.30;2.10;;;4.30;99.90;;;;;;5097139;28;20028;-74
2023/04/03 02:17:24;;;;;;;5.65;2.40;;;4.30;99.90;;;;;;5111676;28;20023;-74
2023/04/03 02:19:50;;;;;;;3.67;2.40;;;4.30;99.90;;;;;;5096688;28;20024;-74
2023/04/03 02:22:15;;;;;;;3.90;2.15;;;4.20;99.90;;;;;;5107837;28;20023;-74
2023/04/03 02:24:41;;;;;;;4.03;2.20;;;4.20;99.90;;;;;;5110131;28;20019;-74
2023/04/03 02:27:07;;;;;;;3.80;2.20;;;4.20;99.90;;;;;;5110617;28;20031;-74
2023/04/03 02:29:33;;;;;;;4.90;2.20;;;4.20;99.90;;;;;;5099846;28;20769;-74
2023/04/03 02:31:58;;;;;;;6.72;2.50;;;4.20;99.90;;;;;;5105531;28;20020;-74
2023/04/03 02:34:24;;;;;;;5.47;2.33;;;4.10;99.90;;;;;;5109909;28;20084;-74
2023/04/03 02:36:50;;;;;;;5.30;2.55;;;4.10;99.90;;;;;;5106359;28;20256;-74
2023/04/03 02:39:16;;;;;;;4.15;2.40;;;4.10;99.90;;;;;;5094465;28;20493;-74
2023/04/03 02:41:41;;;;;;;4.97;2.50;;;4.10;99.90;;;;;;5109714;28;20028;-74
2023/04/03 02:44:10;;;;;;;5.18;2.67;;;4.10;99.90;;;;;;5110277;28;20024;-74
2023/04/03 02:46:35;;;;;;;5.60;2.65;;;4.00;99.90;;;;;;5088203;28;20057;-74
2023/04/03 02:49:01;;;;;;;3.08;2.33;;;4.00;99.90;;;;;;5089252;28;20485;-74
2023/04/03 02:51:27;;;;;;;5.10;2.75;;;4.00;99.90;;;;;;5090034;28;20020;-74
2023/04/03 02:53:52;;;;;;;5.38;2.40;;;4.00;99.90;;;;;;5090060;28;20035;-74
2023/04/03 02:56:19;;;;;;;4.13;2.28;;;4.00;99.90;;;;;;5084900;28;20093;-74
2023/04/03 02:58:44;;;;;;;4.95;2.50;;;3.90;99.90;;;;;;5079849;28;20020;-74
2023/04/03 03:01:10;;;;;;;5.25;2.15;;;3.90;99.90;;;;;;5077173;28;20378;-74
2023/04/03 03:03:36;;;;;;;4.90;2.40;;;3.90;99.90;;;;;;5087328;28;20131;-74
2023/04/03 03:06:10;;;;;;;5.28;2.20;;;3.80;99.90;;;;;;5086529;28;20425;-74
2023/04/03 03:08:36;;;;;;;4.65;2.40;;;3.80;99.90;;;;;;5088127;28;20040;-74
2023/04/03 03:11:02;;;;;;;5.03;2.25;;;3.80;99.90;;;;;;5084372;28;20036;-74
2023/04/03 03:13:28;;;;;;;4.97;2.08;;;3.80;99.90;;;;;;5086204;28;20093;-74
2023/04/03 03:15:54;;;;;;;4.88;2.35;;;3.80;99.90;;;;;;5089414;28;20095;-74
2023/04/03 03:18:20;;;;;;;5.28;2.70;;;3.70;99.90;;;;;;5089698;28;20020;-74
2023/04/03 03:20:45;;;;;;;5.93;2.22;;;3.70;99.90;;;;;;5084775;28;20020;-74
2023/04/03 03:23:11;;;;;;;3.60;2.40;;;3.70;99.90;;;;;;5080617;28;20038;-74
2023/04/03 03:25:40;;;;;;;6.68;2.33;;;3.70;99.90;;;;;;5084328;28;20031;-74
2023/04/03 03:28:06;;;;;;;5.53;2.22;;;3.70;99.90;;;;;;5088006;28;20399;-74
2023/04/03 03:30:31;;;;;;;4.38;2.30;;;3.60;99.90;;;;;;5084905;28;20054;-74
2023/04/03 03:32:57;;;;;;;4.00;2.03;;;3.70;99.90;;;;;;5089772;28;20066;-74
2023/04/03 03:35:22;;;;;;;4.88;2.30;;;3.60;99.90;;;;;;5085071;28;20036;-74
2023/04/03 03:37:48;;;;;;;8.32;2.13;;;3.60;99.90;;;;;;5085642;28;20028;-74
2023/04/03 03:40:14;;;;;;;5.78;2.67;;;3.60;99.90;;;;;;5084688;28;20259;-74
2023/04/03 03:42:40;;;;;;;4.20;2.17;;;3.60;99.90;;;;;;5081900;28;20033;-74
2023/04/03 03:45:06;;;;;;;4.88;2.03;;;3.60;99.90;;;;;;5074586;28;20028;-74
2023/04/03 03:47:32;;;;;;;9.13;2.15;;;3.50;99.90;;;;;;5106399;28;20406;-74
2023/04/03 03:49:57;;;;;;;4.05;2.10;;;3.50;99.90;;;;;;5105903;28;20020;-73
2023/04/03 03:52:23;;;;;;;6.43;2.58;;;3.50;99.90;;;;;;5109619;28;20030;-73
2023/04/03 03:54:49;;;;;;;7.10;2.58;;;3.50;99.90;;;;;;5094698;28;20114;-73
2023/04/03 03:57:15;;;;;;;4.32;2.42;;;3.50;99.90;;;;;;5113646;28;20023;-73
2023/04/03 03:59:41;;;;;;;7.55;2.60;;;3.50;99.90;;;;;;5113730;28;20028;-73
2023/04/03 04:02:07;;;;;;;6.15;2.45;;;3.50;99.90;;;;;;5113091;28;20047;-73
2023/04/03 04:04:33;;;;;;;4.55;2.17;;;3.40;99.90;;;;;;5108313;28;20088;-73
2023/04/03 04:07:00;;;;;;;5.88;2.67;;;3.40;99.90;;;;;;5112080;28;20028;-73
2023/04/03 04:09:26;;;;;;;9.40;2.58;;;3.40;99.90;;;;;;5113788;28;20106;-73
2023/04/03 04:11:52;;;;;;;9.05;4.60;;;3.40;99.90;;;;;;5113980;28;20157;-73
2023/04/03 04:14:18;;;;;;;4.50;2.45;;;3.40;99.90;;;;;;5114697;28;20118;-74
2023/04/03 04:16:43;;;;;;;7.32;2.63;;;3.40;99.90;;;;;;5112181;28;20016;-74
2023/04/03 04:19:09;;;;;;;7.10;2.40;;;3.40;99.90;;;;;;5114170;28;20497;-74
2023/04/03 04:21:35;;;;;;;6.47;2.65;;;3.40;99.90;;;;;;5104771;28;20028;-74
2023/04/03 04:24:01;;;;;;;5.55;2.53;;;3.40;99.90;;;;;;5108238;28;20012;-73
2023/04/03 04:26:26;;;;;;;7.32;2.42;;;3.30;99.90;;;;;;5113207;28;20046;-73
2023/04/03 04:28:52;;;;;;;6.05;2.58;;;3.30;99.90;;;;;;5108771;28;20028;-73
2023/04/03 04:31:18;;;;;;;6.63;2.70;;;3.30;99.90;;;;;;5112348;28;20043;-74
2023/04/03 04:33:43;;;;;;;4.18;2.50;;;3.30;99.90;;;;;;5105902;28;20031;-73
2023/04/03 04:36:09;;;;;;;4.97;2.58;;;3.20;99.90;;;;;;5112866;28;20099;-74
2023/04/03 04:38:35;;;;;;;4.50;2.38;;;3.20;99.90;;;;;;5110435;28;20024;-74
2023/04/03 04:41:00;;;;;;;5.15;2.72;;;3.10;99.90;;;;;;5103298;28;20020;-74
2023/04/03 04:43:26;;;;;;;6.15;2.60;;;3.10;99.90;;;;;;5107678;28;20097;-74
2023/04/03 04:46:05;;;;;;;8.02;2.72;;;3.10;99.90;;;;;;5101137;28;20016;-74
2023/04/03 04:48:30;;;;;;;6.55;3.30;;;3.10;99.90;;;;;;5111908;28;20099;-74
2023/04/03 04:50:56;;;;;;;6.78;3.03;;;3.10;99.90;;;;;;5110873;28;20107;-74
2023/04/03 04:53:22;;;;;;;6.63;2.80;;;3.10;99.90;;;;;;5101252;28;20107;-74
2023/04/03 04:55:48;;;;;;;4.25;2.55;;;3.10;99.90;;;;;;5098672;28;20050;-74
2023/04/03 04:58:13;;;;;;;7.28;2.78;;;3.10;99.90;;;;;;5112989;28;20279;-74
2023/04/03 05:00:39;;;;;;;7.57;2.90;;;3.00;99.90;;;;;;5098282;28;20044;-74
2023/04/03 05:03:05;;;;;;;6.22;2.90;;;3.00;99.90;;;;;;5111411;28;20088;-74
2023/04/03 05:05:30;;;;;;;7.82;2.95;;;3.00;99.90;;;;;;5109427;28;20077;-74
2023/04/03 05:07:56;;;;;;;8.73;2.95;;;3.00;99.90;;;;;;5112028;28;20103;-74
2023/04/03 05:10:21;;;;;;;7.47;3.00;;;3.00;99.90;;;;;;5112761;28;20099;-74
2023/04/03 05:12:47;;;;;;;7.63;3.38;;;2.90;99.90;;;;;;5108516;28;20123;-74
2023/04/03 05:15:13;;;;;;;8.57;3.50;;;2.90;99.90;;;;;;5108134;28;20023;-74
2023/04/03 05:17:38;;;;;;;8.68;3.80;;;2.90;99.90;;;;;;5101882;28;20465;-74
2023/04/03 05:20:04;;;;;;;7.32;3.70;;;3.00;99.90;;;;;;5111919;28;20283;-74
2023/04/03 05:22:30;;;;;;;7.45;3.22;;;2.90;99.90;;;;;;5112147;28;20028;-74
2023/04/03 05:24:56;;;;;;;7.82;3.17;;;2.90;99.90;;;;;;5112422;28;20028;-74
2023/04/03 05:27:23;;;;;;;8.32;3.58;;;2.90;99.90;;;;;;5111748;28;20397;-74
2023/04/03 05:29:50;;;;;;;7.95;3.78;;;2.90;99.90;;;;;;5099365;28;20024;-74
2023/04/03 05:32:16;;;;;;;7.15;3.03;;;2.90;99.90;;;;;;5104693;28;20106;-74
2023/04/03 05:34:42;;;;;;;7.55;3.28;;;2.90;99.90;;;;;;5108803;28;20028;-74
2023/04/03 05:37:07;;;;;;;4.82;3.03;;;2.90;99.90;;;;;;5111377;28;20031;-74
2023/04/03 05:39:33;;;;;;;4.60;2.85;;;2.90;99.90;;;;;;5111081;28;20474;-74
2023/04/03 05:41:59;;;;;;;7.97;2.78;;;2.90;99.90;;;;;;5105754;28;20040;-74
2023/04/03 05:44:25;;;;;;;6.47;2.88;;;2.90;99.90;;;;;;5106001;28;20028;-75
2023/04/03 05:46:50;;;;;;;7.13;3.00;;;2.90;99.90;;;;;;5099148;28;20051;-75
2023/04/03 05:49:16;;;;;;;7.22;3.08;;;2.90;99.90;;;;;;5111475;28;20462;-75
2023/04/03 05:51:42;;;;;;;7.88;3.38;;;2.90;99.90;;;;;;5099067;28;20015;-75
2023/04/03 05:54:17;;;;;;;7.40;3.05;;;2.90;99.90;;;;;;5110783;28;20043;-75
2023/04/03 05:56:43;;;;;;;6.57;3.20;;;3.00;99.90;;;;;;5110665;28;20434;-75
2023/04/03 05:59:09;;;;;;;7.00;3.25;;;2.90;99.90;;;;;;5084723;28;20016;-75
2023/04/03 06:01:35;;;;;;;6.88;3.53;;;3.00;99.90;;;;;;5103296;28;20020;-75
2023/04/03 06:04:03;;;;;;;6.55;3.65;;;3.00;99.90;;;;;;5108976;28;20114;-75
2023/04/03 06:06:55;;;;;;;8.68;3.63;;;3.00;99.90;;;;;;5109011;28;20487;-76
2023/04/03 06:09:24;;;;;;;8.80;4.28;;;3.00;99.90;;;;;;5093531;28;20059;-75
2023/04/03 06:11:50;;;;;;;13.57;4.07;;;3.00;99.90;;;;;;5101792;28;20060;-75
2023/04/03 06:14:15;;;;;;;6.68;4.03;;;3.00;99.90;;;;;;5092061;28;20036;-75
2023/04/03 06:16:45;;;;;;;9.88;4.30;;;3.00;99.90;;;;;;5109750;28;20020;-76
2023/04/03 06:19:13;;;;;;;8.68;3.83;;;3.10;99.90;;;;;;5111039;28;20079;-76
2023/04/03 06:21:39;;;;;;;10.80;4.25;;;3.10;99.90;;;;;;5108585;28;20030;-75
2023/04/03 06:24:07;;;;;;;9.27;4.43;;;3.10;99.90;;;;;;5108681;28;20020;-76
2023/04/03 06:26:34;;;;;;;9.05;4.28;;;3.10;99.90;;;;;;5099495;28;20027;-75
2023/04/03 06:29:00;;;;;;;9.70;4.40;;;3.20;99.90;;;;;;5104833;28;20568;-76
2023/04/03 06:31:26;;;;;;;10.85;4.70;;;3.20;99.90;;;;;;5103419;28;20027;-74
2023/04/03 06:33:51;;;;;;;11.93;4.80;;;3.20;99.90;;;;;;5110103;28;20023;-75
2023/04/03 06:36:20;;;;;;;10.82;5.65;;;3.30;99.90;;;;;;5098151;28;20020;-75
2023/04/03 06:38:46;;;;;;;9.45;5.15;;;3.30;99.90;;;;;;5091421;28;20016;-76
2023/04/03 06:41:12;;;;;;;11.75;5.32;;;3.30;99.90;;;;;;5092068;28;20388;-75
2023/04/03 06:43:38;;;;;;;12.80;6.07;;;3.30;99.90;;;;;;5110641;28;20564;-76
2023/04/03 06:46:03;;;;;;;14.18;5.70;;;3.40;99.90;;;;;;5109907;28;20105;-76
2023/04/03 06:48:29;;;;;;;12.40;4.78;;;3.40;99.90;;;;;;5110284;28;20028;-76
2023/04/03 06:50:55;;;;;;;8.77;3.85;;;3.40;99.90;;;;;;5108999;28;20035;-76
2023/04/03 06:53:21;;;;;;;5.95;3.83;;;3.50;99.90;;;;;;5080449;28;20088;-76
2023/04/03 06:55:47;;;;;;;14.32;4.20;;;3.50;99.90;;;;;;5110374;28;20012;-75
2023/04/03 06:58:13;;;;;;;9.88;4.18;;;3.50;99.90;;;;;;5110378;28;20022;-75
2023/04/03 07:00:39;;;;;;;7.60;3.85;;;3.60;99.90;;;;;;5096719;28;20370;-76
2023/04/03 07:03:05;;;;;;;6.35;3.63;;;3.60;99.90;;;;;;5101932;28;20094;-75
2023/04/03 07:05:31;;;;;;;8.35;3.42;;;3.60;99.90;;;;;;5072433;28;20020;-75
2023/04/03 07:07:56;;;;;;;6.88;3.33;;;3.70;99.90;;;;;;5108086;28;20103;-75
2023/04/03 07:10:22;;;;;;;8.35;3.45;;;3.70;99.90;;;;;;5110877;28;20045;-75
2023/04/03 07:12:48;;;;;;;10.82;3.42;;;3.70;99.90;;;;;;5110848;28;20382;-76
2023/04/03 07:15:14;;;;;;;6.95;2.92;;;3.80;99.90;;;;;;5110908;28;20024;-76
2023/04/03 07:17:43;;;;;;;8.98;3.15;;;3.90;99.90;;;;;;5108607;28;20034;-77
2023/04/03 07:20:09;;;;;;;6.13;2.65;;;3.90;99.90;;;;;;5111215;28;20019;-76
2023/04/03 07:22:35;;;;;;;8.50;3.13;;;4.00;99.90;;;;;;5110751;28;20046;-76
2023/04/03 07:25:00;;;;;;;9.27;3.42;;;4.00;99.90;;;;;;5111612;28;20020;-75
2023/04/03 07:27:26;;;;;;;6.60;2.88;;;4.10;99.90;;;;;;5106873;28;20099;-75
2023/04/03 07:29:55;;;;;;;7.40;2.55;;;4.20;99.90;;;;;;5115316;28;20023;-75
2023/04/03 07:32:21;;;;;;;11.98;2.53;;;4.30;99.90;;;;;;5115189;28;20098;-76
2023/04/03 07:34:47;;;;;;;10.13;3.05;;;4.30;99.90;;;;;;5113922;28;20472;-75
2023/04/03 07:37:13;;;;;;;8.65;3.05;;;4.40;99.90;;;;;;5109285;28;20381;-75
2023/04/03 07:39:38;;;;;;;7.53;2.70;;;4.40;99.90;;;;;;5115202;28;20047;-75
2023/04/03 07:42:04;;;;;;;7.63;2.78;;;4.50;99.90;;;;;;5114804;28;20026;-75
2023/04/03 07:44:30;;;;;;;9.02;2.63;;;4.60;99.90;;;;;;5114357;28;20428;-75
2023/04/03 07:46:56;;;;;;;6.35;2.75;;;4.60;99.90;;;;;;5114936;28;20039;-74
2023/04/03 07:49:23;;;;;;;6.07;2.42;;;4.70;99.90;;;;;;5115604;28;20019;-75
2023/04/03 07:51:49;;;;;;;7.50;2.92;;;4.80;99.90;;;;;;5115214;28;20057;-75
2023/04/03 07:54:15;;;;;;;10.60;2.75;;;4.90;99.90;;;;;;5114526;28;20040;-75
2023/04/03 07:56:42;;;;;;;8.10;2.78;;;5.00;99.90;;;;;;5114711;28;20031;-75
2023/04/03 07:59:08;;;;;;;6.25;2.53;;;5.10;99.90;;;;;;5113212;28;20382;-75
2023/04/03 08:01:34;;;;;;;7.10;2.50;;;5.20;99.90;;;;;;5093348;28;20032;-75
2023/04/03 08:04:00;;;;;;;7.13;2.72;;;5.30;99.90;;;;;;5108781;28;20050;-75
2023/04/03 08:06:26;;;;;;;5.28;2.33;;;5.40;99.90;;;;;;5112162;28;20088;-75
2023/04/03 08:08:51;;;;;;;7.72;2.65;;;5.50;99.90;;;;;;5095683;28;20016;-76
2023/04/03 08:11:18;;;;;;;9.30;2.70;;;5.70;99.90;;;;;;5111052;28;20015;-75
2023/04/03 08:13:44;;;;;;;9.55;2.40;;;5.80;99.90;;;;;;5111845;28;20126;-75
2023/04/03 08:16:17;;;;;;;6.03;2.42;;;5.90;99.90;;;;;;5112422;28;20526;-76
2023/04/03 08:18:43;;;;;;;4.82;2.60;;;6.10;99.90;;;;;;5112146;28;20026;-76
2023/04/03 08:21:10;;;;;;;6.85;2.30;;;6.20;99.90;;;;;;5113145;28;20031;-76
2023/04/03 08:23:36;;;;;;;7.07;1.75;;;6.40;99.90;;;;;;5112165;28;20040;-76
2023/04/03 08:26:07;;;;;;;9.98;2.42;;;6.50;99.90;;;;;;5116003;28;20042;-76
2023/04/03 08:28:32;;;;;;;5.75;2.20;;;6.60;99.90;;;;;;5116888;28;20028;-75
2023/04/03 08:31:05;;;;;;;6.30;2.38;;;6.70;99.90;;;;;;5117321;28;20015;-75
2023/04/03 08:33:31;;;;;;;6.10;2.60;;;6.80;99.90;;;;;;5096380;28;20038;-76
2023/04/03 08:35:56;;;;;;;5.97;2.40;;;6.90;99.90;;;;;;5102338;28;20024;-76
2023/04/03 08:38:22;;;;;;;7.20;2.50;;;7.10;99.90;;;;;;5109795;28;20071;-76
2023/04/03 08:40:58;;;;;;;7.05;2.50;;;7.20;99.90;;;;;;5101997;28;20027;-76
2023/04/03 08:43:51;;;;;;;4.38;1.80;;;7.30;99.90;;;;;;5099292;28;20019;-76
2023/04/03 08:46:22;;;;;;;7.20;2.00;;;7.40;99.90;;;;;;5111963;28;20417;-76
2023/04/03 08:48:50;;;;;;;7.68;2.35;;;7.60;99.90;;;;;;5112564;28;20098;-76
2023/04/03 08:51:19;;;;;;;6.40;2.17;;;7.70;99.90;;;;;;5108632;28;20024;-76
2023/04/03 08:54:05;;;;;;;5.70;2.25;;;7.80;99.90;;;;;;5103922;28;20042;-76
2023/04/03 08:56:33;;;;;;;6.50;2.13;;;8.00;99.90;;;;;;5112515;28;20068;-76
2023/04/03 08:59:05;;;;;;;5.53;1.70;;;8.10;99.90;;;;;;5112318;28;20509;-76
2023/04/03 09:01:37;;;;;;;8.05;1.88;;;8.10;99.90;;;;;;5112542;28;20031;-76
2023/04/03 09:04:11;;;;;;;7.07;2.30;;;8.30;99.90;;;;;;5111897;28;20004;-76
2023/04/03 09:06:38;;;;;;;7.50;1.80;;;8.40;99.90;;;;;;5112189;28;20024;-75
2023/04/03 09:09:28;;;;;;;5.88;1.77;;;8.40;99.90;;;;;;5111081;28;20024;-76
2023/04/03 09:11:56;;;;;;;6.65;1.80;;;8.40;99.90;;;;;;5113044;28;20027;-76
2023/04/03 09:14:52;;;;;;;6.25;1.55;;;8.50;99.90;;;;;;5093455;28;20115;-76
2023/04/03 09:17:32;;;;;;;3.35;1.42;;;8.50;99.90;;;;;;5104828;28;20016;-76
2023/04/03 09:20:01;;;;;;;3.30;1.38;;;8.50;99.90;;;;;;5112435;28;20051;-76
2023/04/03 09:22:32;;;;;;;2.80;1.50;;;8.70;99.90;;;;;;5111568;28;20029;-76
2023/04/03 09:25:24;;;;;;;4.60;1.50;;;8.80;99.90;;;;;;5111950;28;20019;-76
2023/04/03 09:27:51;;;;;;;2.95;1.30;;;8.80;99.90;;;;;;5093045;28;20039;-76
2023/04/03 09:30:21;;;;;;;5.95;1.73;;;9.00;99.90;;;;;;5100319;28;20563;-76
2023/04/03 09:32:50;;;;;;;3.28;1.50;;;9.10;99.90;;;;;;5093784;28;20034;-73
2023/04/03 09:35:30;;;;;;;3.13;1.13;;;9.30;99.90;;;;;;5111651;28;20031;-74
2023/04/03 09:38:09;;;;;;;2.63;1.10;;;9.30;99.90;;;;;;5099425;28;20390;-75
2023/04/03 09:40:38;;;;;;;3.17;1.30;;;9.40;99.90;;;;;;5077731;28;20039;-75
2023/04/03 09:43:24;;;;;;;3.17;1.30;;;9.50;99.90;;;;;;5106775;28;20103;-75
2023/04/03 09:45:51;;;;;;;3.67;1.20;;;9.60;97.10;;;;;;5111318;28;20501;-74
2023/04/03 09:48:20;;;;;;;3.35;1.30;;;9.60;97.80;;;;;;5111633;28;20035;-74
2023/04/03 09:50:56;;;;;;;3.42;1.17;;;9.70;97.70;;;;;;5111712;28;20058;-75
2023/04/03 09:53:42;;;;;;;3.85;1.00;;;9.80;95.70;;;;;;5099692;28;20035;-75
2023/04/03 09:56:16;;;;;;;3.13;1.00;;;9.80;94.00;;;;;;5097992;28;20024;-75
2023/04/03 09:58:49;;;;;;;1.58;1.00;;;9.90;93.80;;;;;;5098899;28;20048;-74
2023/04/03 10:01:29;;;;;;;3.65;1.27;;;9.90;92.90;;;;;;5104347;28;20028;-74
2023/04/03 10:04:16;;;;;;;1.27;0.90;;;10.00;93.00;;;;;;5104902;28;20370;-74
2023/04/03 10:06:51;;;;;;;2.97;1.00;;;10.10;90.30;;;;;;5090547;28;20483;-75
2023/04/03 10:09:54;;;;;;;2.72;1.05;;;10.10;90.60;;;;;;5110241;28;20049;-75
2023/04/03 10:12:21;;;;;;;4.50;1.30;;;10.10;88.40;;;;;;5110898;28;20465;-75
2023/04/03 10:14:52;;;;;;;4.13;1.55;;;10.10;90.00;;;;;;5111239;28;20031;-75
2023/04/03 10:17:41;;;;;;;3.83;1.08;;;10.10;90.00;;;;;;5097003;28;20024;-75
2023/04/03 10:20:39;;;;;;;1.80;0.90;;;10.10;86.70;;;;;;5111818;28;20027;-75
2023/04/03 10:23:31;;;;;;;2.67;1.20;;;10.10;85.70;;;;;;5088060;28;20513;-75
2023/04/03 10:26:24;;;;;;;5.47;1.10;;;10.10;84.40;;;;;;5090762;28;20050;-75
2023/04/03 10:29:03;;;;;;;2.95;1.20;;;10.20;85.60;;;;;;5108501;28;20061;-75
2023/04/03 10:31:50;;;;;;;3.28;1.10;;;10.30;84.40;;;;;;5110487;28;20047;-75
2023/04/03 10:34:29;;;;;;;3.08;1.38;;;10.40;83.80;;;;;;5100227;28;20030;-75
2023/04/03 10:37:14;;;;;;;4.15;1.27;;;10.40;80.80;;;;;;5108902;28;20023;-75
2023/04/03 10:39:58;;;;;;;2.97;1.30;;;10.50;81.00;;;;;;5110695;28;20030;-75
2023/04/03 10:42:50;;;;;;;1.90;0.98;;;10.50;80.30;;;;;;5099981;28;20027;-75
2023/04/03 10:45:22;;;;;;;1.70;1.10;;;10.50;80.80;;;;;;5101358;28;20019;-75
2023/04/03 10:47:55;;;;;;;2.85;0.98;;;10.50;81.30;;;;;;5111859;28;20052;-76
2023/04/03 10:50:35;;;;;;;1.88;1.00;;;10.60;81.10;;;;;;5101879;28;20103;-76
2023/04/03 10:53:11;;;;;;;2.85;1.10;;;10.80;80.10;;;;;;5106593;28;20024;-75
2023/04/03 10:55:40;;;;;;;2.95;1.15;;;10.90;80.50;;;;;;5105473;28;20031;-75
2023/04/03 10:58:12;;;;;;;1.88;0.90;;;11.00;74.20;;;;;;5111663;28;20015;-73
2023/04/03 11:00:48;;;;;;;1.88;0.75;;;11.00;70.30;;;;;;5110020;28;20110;-73
2023/04/03 11:03:36;;;;;;;1.98;0.90;;;11.00;67.20;;;;;;5109761;28;20099;-77
2023/04/03 11:06:07;;;;;;;2.42;0.82;;;11.00;68.10;;;;;;5101548;28;20019;-75
2023/04/03 11:08:56;;;;;;;5.25;1.08;;;11.00;66.70;;;;;;5089609;28;20028;-75
2023/04/03 11:11:29;;;;;;;2.63;0.98;;;11.00;66.40;;;;;;5096352;28;20440;-76
2023/04/03 11:14:02;;;;;;;3.17;1.10;;;11.00;64.50;;;;;;5108601;28;20101;-76
2023/04/03 11:16:32;;;;;;;3.25;0.75;;;11.10;64.30;;;;;;5109006;28;20039;-76
2023/04/03 11:19:21;;;;;;;1.17;0.80;;;11.10;64.20;;;;;;5107182;28;20056;-76
2023/04/03 11:21:57;;;;;;;1.80;0.88;;;11.10;64.00;;;;;;5103237;28;20008;-76
2023/04/03 11:24:26;;;;;;;2.50;1.00;;;11.10;64.50;;;;;;5105815;28;20016;-76
2023/04/03 11:26:54;;;;;;;2.20;1.00;;;11.30;65.00;;;;;;5105727;28;20027;-76
2023/04/03 11:29:26;;;;;;;2.10;1.13;;;11.40;64.50;;;;;;5108591;28;20023;-77
2023/04/03 11:32:20;;;;;;;1.67;0.88;;;11.50;66.00;;;;;;5109651;28;20401;-76
2023/04/03 11:34:49;;;;;;;1.27;0.80;;;11.60;65.00;;;;;;5106980;28;20034;-76
2023/04/03 11:37:35;;;;;;;3.70;1.20;;;11.60;64.20;;;;;;5109540;28;20067;-75
2023/04/03 11:40:08;;;;;;;;;;;11.70;64.40;;;;;;5091818;28;20160;-76
2023/04/03 11:42:38;;;;;;;2.10;0.80;;;11.60;60.60;;;;;;5099770;28;19904;-76
2023/04/03 11:45:22;;;;;;;1.63;0.80;;;11.60;62.00;;;;;;5096288;28;20027;-76
2023/04/03 11:47:50;;;;;;;1.77;0.88;;;11.70;62.00;;;;;;5107130;28;20447;-75
2023/04/03 11:50:34;;;;;;;3.20;0.90;;;11.70;61.60;;;;;;5103436;28;20027;-74
2023/04/03 11:53:06;;;;;;;1.35;0.80;;;11.70;60.60;;;;;;5098683;28;20035;-75
2023/04/03 11:55:31;;;;;;;3.55;0.80;;;11.80;61.80;;;;;;5114569;28;20016;-75
2023/04/03 11:57:57;;;;;;;1.83;0.70;;;11.90;60.90;;;;;;5109676;28;20019;-74
2023/04/03 12:00:49;;;;;;;1.25;0.70;;;11.90;58.40;;;;;;5110515;28;20016;-74
2023/04/03 12:03:27;;;;;;;2.45;0.70;;;11.90;56.40;;;;;;5093987;28;20035;-75
2023/04/03 12:06:16;;;;;;;1.38;0.65;;;11.80;56.80;;;;;;5104903;28;20095;-75
2023/04/03 12:08:42;;;;;;;2.42;0.75;;;11.90;57.30;;;;;;5062868;28;20475;-75
2023/04/03 12:11:12;;;;;;;2.38;0.70;;;12.00;55.70;;;;;;5104642;28;20027;-75
2023/04/03 12:13:56;;;;;;;3.85;0.50;;;12.10;55.60;;;;;;5103034;28;20435;-75
2023/04/03 12:16:37;;;;;;;0.93;0.50;;;12.10;54.60;;;;;;5113444;28;20073;-75
2023/04/03 12:19:15;;;;;;;1.70;0.50;;;12.20;55.10;;;;;;5112536;28;20084;-75
2023/04/03 12:22:03;;;;;;;1.65;0.57;;;12.20;54.90;;;;;;5113597;28;20016;-75
2023/04/03 12:24:30;;;;;;;1.00;0.60;;;12.30;54.00;;;;;;5112623;28;20032;-77
2023/04/03 12:27:18;;;;;;;1.67;0.57;;;12.30;54.30;;;;;;5115503;28;20022;-77
2023/04/03 12:29:47;;;;;;;1.40;0.60;;;12.30;52.30;;;;;;5113453;28;20046;-77
2023/04/03 12:32:41;;;;;;;1.00;0.50;;;12.30;52.80;;;;;;5111224;28;20019;-77
2023/04/03 12:35:45;;;;;;;1.52;0.73;;;12.30;53.40;;;;;;5108795;28;20110;-78
2023/04/03 12:38:33;;;;;;;2.95;0.57;;;12.30;51.20;;;;;;5113520;28;20031;-77
2023/04/03 12:41:35;;;;;;;0.95;0.60;;;12.20;52.00;;;;;;5104031;28;20020;-78
2023/04/03 12:44:27;;;;;;;1.00;0.60;;;12.30;52.60;;;;;;5106869;28;20043;-77
2023/04/03 12:46:53;;;;;;;2.30;0.70;;;12.30;53.20;;;;;;5101855;28;20431;-75
2023/04/03 12:49:36;;;;;;;0.80;0.70;;;12.40;53.00;;;;;;5100433;28;20104;-75
2023/04/03 12:52:12;;;;;;;0.75;0.60;;;12.40;52.60;;;;;;5103626;28;20436;-75
2023/04/03 12:54:42;;;;;;;1.35;0.63;;;12.40;53.30;;;;;;5112182;28;20023;-75
2023/04/03 12:57:20;;;;;;;1.55;0.95;;;12.50;54.90;;;;;;5112724;28;20024;-75
2023/04/03 12:59:46;;;;;;;2.72;0.73;;;12.50;53.40;;;;;;5097046;28;20095;-75
2023/04/03 13:02:29;;;;;;;1.75;0.80;;;12.50;54.20;;;;;;5106636;28;20044;-75
2023/04/03 13:05:09;;;;;;;1.83;1.00;;;12.50;53.70;;;;;;5112366;28;20011;-75
2023/04/03 13:07:40;;;;;;;1.50;0.80;;;12.50;54.40;;;;;;5111969;28;20031;-75
2023/04/03 13:10:09;;;;;;;1.92;1.00;;;12.50;54.50;;;;;;5091950;28;20059;-74
2023/04/03 13:12:45;;;;;;;2.70;0.90;;;12.60;54.80;;;;;;5112260;28;20463;-74